Flight Track Log - Related Links

Times and Time Zones

All times are in EDT time to prevent confusion due to time zone crossing. See the EJA922 flight status page for this flight to view local times or setup timezone preferences in your user account.

Time Position Orientation Groundspeed Altitude Reporting Facility
EDT Latitude Longitude Course Direction KTS MPH feet Rate Location/Type
Wed 01:01:43 PM 29.5222 -98.4592 119° Southeast 198 228 1,600  Level Houston Center
Wed 01:02:50 PM 29.4886 -98.3889 119° Southeast 247 284 5,700 3,082 Climbing Houston Center
Wed 01:04:09 PM 29.5564 -98.3167 43° Northeast 260 299 9,100 2,426 Climbing Houston Center
Wed 01:05:11 PM 29.6253 -98.2558 38° Northeast 292 336 11,400 1,887 Climbing Houston Center
Wed 01:06:13 PM 29.6369 -98.1558 82° East 316 364 13,000 1,452 Climbing Houston Center
Wed 01:07:15 PM 29.6419 -98.0558 87° East 316 364 14,400 1,984 Climbing Houston Center
Wed 01:08:17 PM 29.6475 -97.9456 87° East 323 372 17,100 2,419 Climbing Houston Center
Wed 01:09:19 PM 29.6522 -97.8383 87° East 335 386 19,400 2,177 Climbing Houston Center
Wed 01:10:21 PM 29.6539 -97.7281 89° East 343 395 21,600 2,032 Climbing Houston Center
Wed 01:11:23 PM 29.6556 -97.6175 89° East 346 398 23,600 1,512 Climbing Houston Center
Wed 01:12:24 PM 29.6561 -97.5014 90° East 360 414 24,700 1,024 Climbing Houston Center
Wed 01:13:26 PM 29.6575 -97.3756 89° East 388 447 25,700 968 Climbing Houston Center
Wed 01:14:28 PM 29.6583 -97.2419 90° East 411 473 26,700 1,016 Climbing Houston Center
Wed 01:15:30 PM 29.6594 -97.1053 89° East 422 486 27,800 1,210 Climbing Houston Center
Wed 01:16:32 PM 29.6483 -96.9353 94° East 440 506 29,200 1,403 Climbing Houston Center
Wed 01:17:34 PM 29.6231 -96.7944 102° East 444 511 30,700 1,452 Climbing Houston Center
Wed 01:18:36 PM 29.6006 -96.6550 100° East 439 505 32,200 1,452 Climbing Houston Center
Wed 01:19:38 PM 29.6006 -96.5158 90° East 436 502 33,700 1,500 Climbing Houston Center
Wed 01:20:40 PM 29.6683 -96.4036 55° Northeast 433 498 35,300 1,355 Climbing Houston Center
Wed 01:21:42 PM 29.7547 -96.3078 44° Northeast 432 497 36,500 1,065 Climbing Houston Center
Wed 01:22:44 PM 29.8456 -96.2083 44° Northeast 446 513 37,500 1,065 Climbing Houston Center
Wed 01:23:46 PM 29.9578 -96.0842 44° Northeast 464 534 38,700 1,065 Climbing Houston Center
Wed 01:24:48 PM 30.0517 -95.9789 44° Northeast 472 543 39,700 871 Climbing Houston Center
Wed 01:25:50 PM 30.1489 -95.8719 44° Northeast 477 549 40,500 629 Climbing Houston Center
Wed 01:26:52 PM 30.2450 -95.7650 44° Northeast 479 551 41,000 242 Climbing Houston Center
Wed 01:27:54 PM 30.3453 -95.6508 44° Northeast 498 573 41,000  Level Houston Center
Wed 01:28:56 PM 30.4461 -95.5367 44° Northeast 505 581 41,000  Level Houston Center
Wed 01:29:58 PM 30.5594 -95.4092 44° Northeast 502 578 41,000  Level Houston Center
Wed 01:31:00 PM 30.6592 -95.2958 44° Northeast 501 577 41,000  Level Houston Center
Wed 01:32:02 PM 30.7589 -95.1817 45° Northeast 502 578 41,000  Level Houston Center
Wed 01:33:04 PM 30.8581 -95.0686 44° Northeast 498 573 41,000  Level Houston Center
Wed 01:34:06 PM 30.9764 -94.9308 45° Northeast 501 577 41,000  Level Houston Center
Wed 01:35:08 PM 31.0736 -94.8175 45° Northeast 499 574 41,000  Level Houston Center
Wed 01:36:10 PM 31.1653 -94.7089 45° Northeast 523 602 41,000  Level Houston Center
Wed 01:37:11 PM 31.2428 -94.5589 59° Northeast 553 636 41,000  Level Houston Center
Wed 01:38:13 PM 31.3311 -94.3928 58° Northeast 509 586 41,000  Level Houston Center
Wed 01:39:15 PM 31.4050 -94.2514 58° Northeast 512 589 41,000 362 Level Houston Center
Wed 01:40:42 PM 31.5081 -94.0528 59° Northeast 510 587 41,900 685 Climbing Houston Center
Wed 01:41:44 PM 31.5789 -93.9144 59° Northeast 500 575 42,700 532 Climbing Houston Center
Wed 01:42:46 PM 31.6508 -93.7744 59° Northeast 499 574 43,000 145 Climbing Houston Center
Wed 01:43:48 PM 31.7239 -93.6319 59° Northeast 507 583 43,000  Level Houston Center
Wed 01:44:49 PM 31.8061 -93.4692 59° Northeast 512 589 43,000  Level Houston Center
Wed 01:45:51 PM 31.8794 -93.3233 59° Northeast 516 594 43,000  Level Houston Center
Wed 01:46:53 PM 31.9533 -93.1778 59° Northeast 516 594 43,000  Level Houston Center
Wed 01:47:55 PM 32.0264 -93.0308 60° Northeast 517 595 43,000  Level Houston Center
Wed 01:48:57 PM 32.1006 -92.8847 59° Northeast 517 595 43,000  Level Houston Center
Wed 01:49:59 PM 32.1883 -92.7069 60° Northeast 519 597 43,000  Level Houston Center
Wed 01:51:00 PM 32.2483 -92.5850 60° Northeast 521 600 43,000  Level Houston Center
Wed 01:52:02 PM 32.3364 -92.4083 59° Northeast 521 600 43,000  Level Houston Center
Wed 01:53:04 PM 32.4078 -92.2589 60° Northeast 523 602 43,000  Level Houston Center
Wed 01:54:06 PM 32.4814 -92.1122 59° Northeast 520 598 43,000  Level Houston Center
Wed 01:55:07 PM 32.5375 -91.9575 67° East 519 597 43,000  Level Houston Center
Wed 01:56:09 PM 32.5792 -91.7892 74° East 531 611 43,000  Level Houston Center
Wed 01:57:11 PM 32.6183 -91.6192 75° East 533 613 43,000  Level Houston Center
Wed 01:58:18 PM 32.6694 -91.4208 73° East 521 600 43,000  Level Memphis Center
Wed 01:59:18 PM 32.7064 -91.2561 75° East 521 600 43,000  Level Memphis Center
Wed 02:00:18 PM 32.7469 -91.0883 74° East 521 600 43,000  Level Memphis Center
Wed 02:01:18 PM 32.7875 -90.9183 74° East 521 600 43,000  Level Memphis Center
Wed 02:02:18 PM 32.8278 -90.7528 74° East 521 600 43,000  Level Memphis Center
Wed 02:03:18 PM 32.8681 -90.5847 74° East 521 600 43,000  Level Memphis Center
Wed 02:04:18 PM 32.9058 -90.4167 75° East 521 600 43,000  Level Memphis Center
Wed 02:05:18 PM 32.9475 -90.2433 74° East 521 600 43,000  Level Memphis Center
Wed 02:06:18 PM 32.9869 -90.0750 74° East 521 600 43,000  Level Memphis Center
Wed 02:07:18 PM 33.0322 -89.9064 72° East 521 600 43,000  Level Memphis Center
Wed 02:08:18 PM 33.0669 -89.7275 77° East 536 617 43,000  Level Memphis Center
Wed 02:09:18 PM 33.1056 -89.5536 75° East 541 623 43,000  Level Memphis Center
Wed 02:10:18 PM 33.1419 -89.3847 76° East 536 617 43,000  Level Memphis Center
Wed 02:11:18 PM 33.1822 -89.2106 75° East 529 609 43,000  Level Memphis Center
Wed 02:12:18 PM 33.2200 -89.0361 75° East 535 616 43,000  Level Memphis Center
Wed 02:13:18 PM 33.2578 -88.8667 75° East 530 610 43,000  Level Memphis Center
Wed 02:14:18 PM 33.2933 -88.6969 76° East 530 610 43,000  Level Memphis Center
Wed 02:15:18 PM 33.3325 -88.5247 75° East 530 610 43,000  Level Memphis Center
Wed 02:16:18 PM 33.3694 -88.3500 76° East 530 610 43,000  Level Memphis Center
Wed 02:18:16 PM 33.4403 -88.0069 76° East 558 642 43,000  Level Atlanta Center
Wed 02:19:16 PM 33.4750 -87.8317 77° East 553 636 43,000  Level Atlanta Center
Wed 02:20:16 PM 33.5136 -87.6564 75° East 542 624 43,000  Level Atlanta Center
Wed 02:21:16 PM 33.5478 -87.4808 77° East 542 624 43,000  Level Atlanta Center
Wed 02:22:16 PM 33.6256 -87.3094 61° Northeast 527 606 43,000 -250 Level Atlanta Center
Wed 02:23:16 PM 33.7169 -87.1731 51° Northeast 522 601 42,500 -650 Descending Atlanta Center
Wed 02:24:16 PM 33.8119 -87.0364 50° Northeast 522 601 41,700 -650 Descending Atlanta Center
Wed 02:25:16 PM 33.9072 -86.8997 50° Northeast 527 606 41,200 -350 Descending Atlanta Center
Wed 02:26:16 PM 34.0022 -86.7600 51° Northeast 532 612 41,000 -100 Descending Atlanta Center
Wed 02:27:16 PM 34.0992 -86.6200 50° Northeast 537 618 41,000  Level Atlanta Center
Wed 02:28:16 PM 34.1958 -86.4800 50° Northeast 537 618 41,000  Level Atlanta Center
Wed 02:29:16 PM 34.2925 -86.3394 50° Northeast 537 618 41,000  Level Atlanta Center
Wed 02:30:16 PM 34.3889 -86.1986 50° Northeast 537 618 41,000  Level Atlanta Center
Wed 02:31:16 PM 34.4875 -86.0550 50° Northeast 537 618 41,000  Level Atlanta Center
Wed 02:32:16 PM 34.5836 -85.9133 50° Northeast 537 618 41,000  Level Atlanta Center
Wed 02:33:16 PM 34.6817 -85.7742 49° Northeast 536 617 41,000  Level Atlanta Center
Wed 02:34:16 PM 34.7775 -85.6294 51° Northeast 541 623 41,000  Level Atlanta Center
Wed 02:35:16 PM 34.8731 -85.4819 52° Northeast 541 623 41,000  Level Atlanta Center
Wed 02:36:16 PM 34.9708 -85.3367 51° Northeast 546 628 41,000  Level Atlanta Center
Wed 02:37:16 PM 35.0683 -85.1883 51° Northeast 551 634 41,000  Level Atlanta Center
Wed 02:38:16 PM 35.1656 -85.0397 51° Northeast 556 640 41,000 -500 Level Atlanta Center
Wed 02:39:16 PM 35.2606 -84.8908 52° Northeast 556 640 40,000 -1,050 Descending Atlanta Center
Wed 02:40:16 PM 35.3594 -84.7392 51° Northeast 561 646 38,900 -1,100 Descending Atlanta Center
Wed 02:41:16 PM 35.4583 -84.5894 51° Northeast 561 646 37,800 -1,200 Descending Atlanta Center
Wed 02:42:16 PM 35.5569 -84.4319 52° Northeast 566 651 36,500 2,600 Descending Atlanta Center
Wed 02:43:16 PM 35.6514 -84.2917 50° Northeast 555 639 43,000 -2,950 Climbing Atlanta Center
Wed 02:44:16 PM 35.7286 -84.1589 54° Northeast 541 623 30,600 -6,950 Descending Atlanta Center
Wed 02:45:16 PM 35.7600 -83.9825 78° East 513 590 29,100 -1,300 Descending Atlanta Center
Wed 02:46:16 PM 35.7661 -83.7881 88° East 531 611 28,000 -900 Descending Atlanta Center
Wed 02:47:16 PM 35.7717 -83.5986 88° East 542 624 27,300 -1,000 Descending Atlanta Center
Wed 02:48:16 PM 35.7772 -83.4117 88° East 542 624 26,000 -1,000 Descending Atlanta Center
Wed 02:49:16 PM 35.7842 -83.2067 88° East 542 624 25,300 -500 Descending Atlanta Center
Wed 02:50:16 PM 35.7703 -83.0228 95° East 542 624 25,000 -150 Descending Atlanta Center
Wed 02:51:16 PM 35.7003 -82.8700 119° Southeast 509 586 25,000 -800 Level Atlanta Center
Wed 02:52:16 PM 35.6278 -82.7231 121° Southeast 514 592 23,400 -1,950 Descending Atlanta Center
Wed 02:53:16 PM 35.5572 -82.5786 121° Southeast 497 572 21,100 -2,500 Descending Atlanta Center
Wed 02:54:16 PM 35.4889 -82.4419 122° Southeast 484 557 18,400 -3,650 Descending Atlanta Center
Wed 02:55:16 PM 35.4181 -82.3108 124° Southeast 470 541 13,800 -3,900 Descending Atlanta Center
Wed 02:56:16 PM 35.3172 -82.2622 159° South 385 443 10,600 -2,000 Descending Atlanta Center
Wed 02:57:16 PM 35.2297 -82.2539 176° South 333 383 9,800 -1,100 Descending Atlanta Center
Wed 02:58:16 PM 35.1586 -82.2528 179° South 309 356 8,400 -1,400 Descending Atlanta Center
Wed 02:59:16 PM 35.0881 -82.2872 202° Southwest 285 328 7,000 -800 Descending Atlanta Center
Wed 03:00:16 PM 35.0258 -82.3114 198° South 263 303 6,800 -900 Descending Atlanta Center
Wed 03:01:16 PM 34.9658 -82.3431 203° Southwest 244 281 5,200 -1,400 Descending Atlanta Center
Wed 03:02:16 PM 34.9119 -82.3694 202° Southwest 231 266 4,000 -600 Descending Atlanta Center
Wed 03:03:16 PM 34.8578 -82.3656 177° South 212 244 4,000 -150 Level Atlanta Center
Wed 03:04:16 PM 34.8072 -82.3464 163° South 206 237 3,700 -700 Descending Atlanta Center
Wed 03:05:16 PM 34.8108 -82.2931 85° East 131 151 2,600 -800 Descending Atlanta Center
Wed 03:06:16 PM 34.8269 -82.2550 63° Northeast 102 117 2,100 -500 Descending Atlanta Center

Login

Don't have an account? Register now (free) for customized features, flight alerts, and more!